sensor_id;sensor_type;location;lat;lon;timestamp;P1;durP1;ratioP1;P2;durP2;ratioP2
56271;SDS011;42177;48.914;18.160;2023-05-09T00:04:30;6.7;;;5.3;;
56271;SDS011;42177;48.914;18.160;2023-05-09T00:09:30;7.7;;;5.5;;
56271;SDS011;42177;48.914;18.160;2023-05-09T00:14:30;7.7;;;5.5;;
56271;SDS011;42177;48.914;18.160;2023-05-09T00:19:30;8.8;;;5.6;;
56271;SDS011;42177;48.914;18.160;2023-05-09T00:24:30;8.8;;;5.6;;
56271;SDS011;42177;48.914;18.160;2023-05-09T00:29:30;7.2;;;5.6;;
56271;SDS011;42177;48.914;18.160;2023-05-09T00:34:30;7.2;;;5.6;;
56271;SDS011;42177;48.914;18.160;2023-05-09T00:39:30;7.6;;;5.2;;
56271;SDS011;42177;48.914;18.160;2023-05-09T00:44:30;7.6;;;5.2;;
56271;SDS011;42177;48.914;18.160;2023-05-09T00:49:30;6.8;;;5;;
56271;SDS011;42177;48.914;18.160;2023-05-09T00:54:30;6.8;;;5;;
56271;SDS011;42177;48.914;18.160;2023-05-09T00:59:30;6.6;;;5;;
56271;SDS011;42177;48.914;18.160;2023-05-09T01:04:30;6.6;;;5;;
56271;SDS011;42177;48.914;18.160;2023-05-09T01:09:31;6.6;;;4.9;;
56271;SDS011;42177;48.914;18.160;2023-05-09T01:14:32;6.6;;;4.9;;
56271;SDS011;42177;48.914;18.160;2023-05-09T01:19:35;7.9;;;4.9;;
56271;SDS011;42177;48.914;18.160;2023-05-09T01:24:33;7.9;;;4.9;;
56271;SDS011;42177;48.914;18.160;2023-05-09T01:29:32;7.4;;;4.8;;
56271;SDS011;42177;48.914;18.160;2023-05-09T01:34:30;7.4;;;4.8;;
56271;SDS011;42177;48.914;18.160;2023-05-09T01:39:31;5.8;;;4.7;;
56271;SDS011;42177;48.914;18.160;2023-05-09T01:44:31;5.8;;;4.7;;
56271;SDS011;42177;48.914;18.160;2023-05-09T01:49:30;7;;;5.3;;
56271;SDS011;42177;48.914;18.160;2023-05-09T01:54:30;7;;;5.3;;
56271;SDS011;42177;48.914;18.160;2023-05-09T01:59:30;7.4;;;5;;
56271;SDS011;42177;48.914;18.160;2023-05-09T02:04:30;7.4;;;5;;
56271;SDS011;42177;48.914;18.160;2023-05-09T02:09:30;9.1;;;5.4;;
56271;SDS011;42177;48.914;18.160;2023-05-09T02:14:30;9.1;;;5.4;;
56271;SDS011;42177;48.914;18.160;2023-05-09T02:19:31;7.8;;;5.2;;
56271;SDS011;42177;48.914;18.160;2023-05-09T02:24:30;7.8;;;5.2;;
56271;SDS011;42177;48.914;18.160;2023-05-09T02:29:30;7.3;;;5.3;;
56271;SDS011;42177;48.914;18.160;2023-05-09T02:34:30;7.3;;;5.3;;
56271;SDS011;42177;48.914;18.160;2023-05-09T02:39:30;6.6;;;5.3;;
56271;SDS011;42177;48.914;18.160;2023-05-09T02:44:30;6.6;;;5.3;;
56271;SDS011;42177;48.914;18.160;2023-05-09T02:49:30;6;;;4.8;;
56271;SDS011;42177;48.914;18.160;2023-05-09T02:54:30;6;;;4.8;;
56271;SDS011;42177;48.914;18.160;2023-05-09T02:59:30;7.1;;;4.9;;
56271;SDS011;42177;48.914;18.160;2023-05-09T03:04:30;7.1;;;4.9;;
56271;SDS011;42177;48.914;18.160;2023-05-09T03:09:30;6.2;;;4.7;;
56271;SDS011;42177;48.914;18.160;2023-05-09T03:14:30;6.2;;;4.7;;
56271;SDS011;42177;48.914;18.160;2023-05-09T03:19:30;7.2;;;4.8;;
56271;SDS011;42177;48.914;18.160;2023-05-09T03:24:30;7.2;;;4.8;;
56271;SDS011;42177;48.914;18.160;2023-05-09T03:29:30;6.5;;;5;;
56271;SDS011;42177;48.914;18.160;2023-05-09T03:34:30;6.5;;;5;;
56271;SDS011;42177;48.914;18.160;2023-05-09T03:39:30;6;;;4.5;;
56271;SDS011;42177;48.914;18.160;2023-05-09T03:44:30;6;;;4.5;;
56271;SDS011;42177;48.914;18.160;2023-05-09T03:49:30;7.7;;;5;;
56271;SDS011;42177;48.914;18.160;2023-05-09T03:54:30;7.7;;;5;;
56271;SDS011;42177;48.914;18.160;2023-05-09T03:59:30;6.6;;;5;;
56271;SDS011;42177;48.914;18.160;2023-05-09T04:04:30;6.6;;;5;;
56271;SDS011;42177;48.914;18.160;2023-05-09T04:09:30;6.4;;;5.1;;
56271;SDS011;42177;48.914;18.160;2023-05-09T04:14:30;6.4;;;5.1;;
56271;SDS011;42177;48.914;18.160;2023-05-09T04:19:30;9;;;4.8;;
56271;SDS011;42177;48.914;18.160;2023-05-09T04:24:30;9;;;4.8;;
56271;SDS011;42177;48.914;18.160;2023-05-09T04:29:30;8.1;;;5.1;;
56271;SDS011;42177;48.914;18.160;2023-05-09T04:34:30;8.1;;;5.1;;
56271;SDS011;42177;48.914;18.160;2023-05-09T04:39:30;7.2;;;5;;
56271;SDS011;42177;48.914;18.160;2023-05-09T04:44:30;7.2;;;5;;
56271;SDS011;42177;48.914;18.160;2023-05-09T04:49:30;5.4;;;4.4;;
56271;SDS011;42177;48.914;18.160;2023-05-09T04:54:30;5.4;;;4.4;;
56271;SDS011;42177;48.914;18.160;2023-05-09T04:59:30;5.8;;;4.8;;
56271;SDS011;42177;48.914;18.160;2023-05-09T05:04:30;5.8;;;4.8;;
56271;SDS011;42177;48.914;18.160;2023-05-09T05:09:30;8;;;4.7;;
56271;SDS011;42177;48.914;18.160;2023-05-09T05:14:30;8;;;4.7;;
56271;SDS011;42177;48.914;18.160;2023-05-09T05:19:30;8.4;;;4.6;;
56271;SDS011;42177;48.914;18.160;2023-05-09T05:24:30;8.4;;;4.6;;
56271;SDS011;42177;48.914;18.160;2023-05-09T05:29:30;13.5;;;4.7;;
56271;SDS011;42177;48.914;18.160;2023-05-09T05:34:30;13.5;;;4.7;;
56271;SDS011;42177;48.914;18.160;2023-05-09T05:39:30;5.9;;;4.1;;
56271;SDS011;42177;48.914;18.160;2023-05-09T05:44:30;5.9;;;4.1;;
56271;SDS011;42177;48.914;18.160;2023-05-09T05:49:30;7.3;;;4.2;;
56271;SDS011;42177;48.914;18.160;2023-05-09T05:54:30;7.3;;;4.2;;
56271;SDS011;42177;48.914;18.160;2023-05-09T05:59:30;6.1;;;4;;
56271;SDS011;42177;48.914;18.160;2023-05-09T06:04:30;6.1;;;4;;
56271;SDS011;42177;48.914;18.160;2023-05-09T06:09:30;5.6;;;4.3;;
56271;SDS011;42177;48.914;18.160;2023-05-09T06:14:30;5.6;;;4.3;;
56271;SDS011;42177;48.914;18.160;2023-05-09T06:19:30;7.2;;;5;;
56271;SDS011;42177;48.914;18.160;2023-05-09T06:24:30;7.2;;;5;;
56271;SDS011;42177;48.914;18.160;2023-05-09T06:29:30;9.6;;;5.4;;
56271;SDS011;42177;48.914;18.160;2023-05-09T06:34:30;9.6;;;5.4;;
56271;SDS011;42177;48.914;18.160;2023-05-09T06:39:30;9.9;;;4.7;;
56271;SDS011;42177;48.914;18.160;2023-05-09T06:44:30;9.9;;;4.7;;
56271;SDS011;42177;48.914;18.160;2023-05-09T06:49:30;8.5;;;4.9;;
56271;SDS011;42177;48.914;18.160;2023-05-09T06:54:30;8.5;;;4.9;;
56271;SDS011;42177;48.914;18.160;2023-05-09T06:59:30;7.7;;;4.4;;
56271;SDS011;42177;48.914;18.160;2023-05-09T07:04:30;7.7;;;4.4;;
56271;SDS011;42177;48.914;18.160;2023-05-09T07:09:30;8;;;4.5;;
56271;SDS011;42177;48.914;18.160;2023-05-09T07:14:30;8;;;4.5;;
56271;SDS011;42177;48.914;18.160;2023-05-09T07:19:30;7.8;;;4.4;;
56271;SDS011;42177;48.914;18.160;2023-05-09T07:24:30;7.8;;;4.4;;
56271;SDS011;42177;48.914;18.160;2023-05-09T07:29:30;10.1;;;4.5;;
56271;SDS011;42177;48.914;18.160;2023-05-09T07:34:30;10.1;;;4.5;;
56271;SDS011;42177;48.914;18.160;2023-05-09T07:39:30;6.6;;;4.2;;
56271;SDS011;42177;48.914;18.160;2023-05-09T07:44:30;6.6;;;4.2;;
56271;SDS011;42177;48.914;18.160;2023-05-09T07:49:30;7.4;;;4;;
56271;SDS011;42177;48.914;18.160;2023-05-09T07:54:30;7.4;;;4;;
56271;SDS011;42177;48.914;18.160;2023-05-09T07:59:30;5.4;;;4;;
56271;SDS011;42177;48.914;18.160;2023-05-09T08:04:30;5.4;;;4;;
56271;SDS011;42177;48.914;18.160;2023-05-09T08:09:30;6.5;;;3.7;;
56271;SDS011;42177;48.914;18.160;2023-05-09T08:14:30;6.5;;;3.7;;
56271;SDS011;42177;48.914;18.160;2023-05-09T08:19:30;6.9;;;3.6;;
56271;SDS011;42177;48.914;18.160;2023-05-09T08:24:30;6.9;;;3.6;;
56271;SDS011;42177;48.914;18.160;2023-05-09T08:29:30;4.7;;;3.3;;
56271;SDS011;42177;48.914;18.160;2023-05-09T08:34:30;4.7;;;3.3;;
56271;SDS011;42177;48.914;18.160;2023-05-09T08:39:30;2.8;;;2.3;;
56271;SDS011;42177;48.914;18.160;2023-05-09T08:44:30;2.8;;;2.3;;
56271;SDS011;42177;48.914;18.160;2023-05-09T08:49:30;3.3;;;2.6;;
56271;SDS011;42177;48.914;18.160;2023-05-09T08:54:30;3.3;;;2.6;;
56271;SDS011;42177;48.914;18.160;2023-05-09T08:59:30;2.7;;;2.4;;
56271;SDS011;42177;48.914;18.160;2023-05-09T09:04:30;2.7;;;2.4;;
56271;SDS011;42177;48.914;18.160;2023-05-09T09:09:30;2.6;;;2.2;;
56271;SDS011;42177;48.914;18.160;2023-05-09T09:14:30;2.6;;;2.2;;
56271;SDS011;42177;48.914;18.160;2023-05-09T09:19:30;3.8;;;2.7;;
56271;SDS011;42177;48.914;18.160;2023-05-09T09:24:30;3.8;;;2.7;;
56271;SDS011;42177;48.914;18.160;2023-05-09T09:29:30;3.2;;;2.5;;
56271;SDS011;42177;48.914;18.160;2023-05-09T09:34:30;3.2;;;2.5;;
56271;SDS011;42177;48.914;18.160;2023-05-09T09:39:30;2.2;;;2;;
56271;SDS011;42177;48.914;18.160;2023-05-09T09:44:30;2.2;;;2;;
56271;SDS011;42177;48.914;18.160;2023-05-09T09:49:30;3.1;;;2.3;;
56271;SDS011;42177;48.914;18.160;2023-05-09T09:54:30;3.1;;;2.3;;
56271;SDS011;42177;48.914;18.160;2023-05-09T09:59:30;4.4;;;2.4;;
56271;SDS011;42177;48.914;18.160;2023-05-09T10:04:30;4.4;;;2.4;;
56271;SDS011;42177;48.914;18.160;2023-05-09T10:09:30;3.6;;;2.3;;
56271;SDS011;42177;48.914;18.160;2023-05-09T10:14:30;3.6;;;2.3;;
56271;SDS011;42177;48.914;18.160;2023-05-09T10:19:30;2.8;;;2.5;;
56271;SDS011;42177;48.914;18.160;2023-05-09T10:24:32;2.8;;;2.5;;
56271;SDS011;42177;48.914;18.160;2023-05-09T10:29:31;2.3;;;2.1;;
56271;SDS011;42177;48.914;18.160;2023-05-09T10:34:30;2.3;;;2.1;;
56271;SDS011;42177;48.914;18.160;2023-05-09T10:39:30;4.2;;;2.4;;
56271;SDS011;42177;48.914;18.160;2023-05-09T10:44:30;4.2;;;2.4;;
56271;SDS011;42177;48.914;18.160;2023-05-09T10:49:30;2.9;;;2.4;;
56271;SDS011;42177;48.914;18.160;2023-05-09T10:54:30;2.9;;;2.4;;
56271;SDS011;42177;48.914;18.160;2023-05-09T10:59:32;3.3;;;2.1;;
56271;SDS011;42177;48.914;18.160;2023-05-09T11:04:30;3.3;;;2.1;;
56271;SDS011;42177;48.914;18.160;2023-05-09T11:09:31;2.8;;;2.2;;
56271;SDS011;42177;48.914;18.160;2023-05-09T11:14:30;2.8;;;2.2;;
56271;SDS011;42177;48.914;18.160;2023-05-09T11:19:34;2.8;;;2.3;;
56271;SDS011;42177;48.914;18.160;2023-05-09T11:24:30;2.8;;;2.3;;
56271;SDS011;42177;48.914;18.160;2023-05-09T11:29:36;2.2;;;1.5;;
56271;SDS011;42177;48.914;18.160;2023-05-09T11:34:30;2.2;;;1.5;;
56271;SDS011;42177;48.914;18.160;2023-05-09T11:39:30;1.9;;;1.7;;
56271;SDS011;42177;48.914;18.160;2023-05-09T11:44:30;1.9;;;1.7;;
56271;SDS011;42177;48.914;18.160;2023-05-09T11:49:30;2.8;;;1.8;;
56271;SDS011;42177;48.914;18.160;2023-05-09T11:54:30;2.8;;;1.8;;
56271;SDS011;42177;48.914;18.160;2023-05-09T11:59:30;2.7;;;1.4;;
56271;SDS011;42177;48.914;18.160;2023-05-09T12:04:30;2.7;;;1.4;;
56271;SDS011;42177;48.914;18.160;2023-05-09T12:09:30;2.6;;;1.8;;
56271;SDS011;42177;48.914;18.160;2023-05-09T12:14:31;2.6;;;1.8;;
56271;SDS011;42177;48.914;18.160;2023-05-09T12:19:30;1.7;;;1.5;;
56271;SDS011;42177;48.914;18.160;2023-05-09T12:24:30;1.7;;;1.5;;
56271;SDS011;42177;48.914;18.160;2023-05-09T12:29:30;2.3;;;1.5;;
56271;SDS011;42177;48.914;18.160;2023-05-09T12:34:30;2.3;;;1.5;;
56271;SDS011;42177;48.914;18.160;2023-05-09T12:39:30;2;;;1.8;;
56271;SDS011;42177;48.914;18.160;2023-05-09T12:44:30;2;;;1.8;;
56271;SDS011;42177;48.914;18.160;2023-05-09T12:49:30;2;;;1.8;;
56271;SDS011;42177;48.914;18.160;2023-05-09T12:54:30;2;;;1.8;;
56271;SDS011;42177;48.914;18.160;2023-05-09T12:59:30;2.1;;;1.6;;
56271;SDS011;42177;48.914;18.160;2023-05-09T13:04:30;2.1;;;1.6;;
56271;SDS011;42177;48.914;18.160;2023-05-09T13:09:30;5.6;;;1.9;;
56271;SDS011;42177;48.914;18.160;2023-05-09T13:14:30;5.6;;;1.9;;
56271;SDS011;42177;48.914;18.160;2023-05-09T13:19:30;2.5;;;1.4;;
56271;SDS011;42177;48.914;18.160;2023-05-09T13:24:30;2.5;;;1.4;;
56271;SDS011;42177;48.914;18.160;2023-05-09T13:29:30;2.8;;;1.2;;
56271;SDS011;42177;48.914;18.160;2023-05-09T13:34:30;2.8;;;1.2;;
56271;SDS011;42177;48.914;18.160;2023-05-09T13:39:30;2.1;;;1.6;;
56271;SDS011;42177;48.914;18.160;2023-05-09T13:44:30;2.1;;;1.6;;
56271;SDS011;42177;48.914;18.160;2023-05-09T13:49:30;4;;;1.3;;
56271;SDS011;42177;48.914;18.160;2023-05-09T13:54:30;4;;;1.3;;
56271;SDS011;42177;48.914;18.160;2023-05-09T13:59:30;2.4;;;1.5;;
56271;SDS011;42177;48.914;18.160;2023-05-09T14:04:30;2.4;;;1.5;;
56271;SDS011;42177;48.914;18.160;2023-05-09T14:09:30;3;;;1.1;;
56271;SDS011;42177;48.914;18.160;2023-05-09T14:14:30;3;;;1.1;;
56271;SDS011;42177;48.914;18.160;2023-05-09T14:19:30;2;;;1.2;;
56271;SDS011;42177;48.914;18.160;2023-05-09T14:24:30;2;;;1.2;;
56271;SDS011;42177;48.914;18.160;2023-05-09T14:29:30;1.2;;;1.1;;
56271;SDS011;42177;48.914;18.160;2023-05-09T14:34:30;1.2;;;1.1;;
56271;SDS011;42177;48.914;18.160;2023-05-09T14:39:30;1.4;;;1.3;;
56271;SDS011;42177;48.914;18.160;2023-05-09T14:44:30;1.4;;;1.3;;
56271;SDS011;42177;48.914;18.160;2023-05-09T14:49:30;2.7;;;1.1;;
56271;SDS011;42177;48.914;18.160;2023-05-09T14:54:30;2.7;;;1.1;;
56271;SDS011;42177;48.914;18.160;2023-05-09T14:59:30;1.7;;;1;;
56271;SDS011;42177;48.914;18.160;2023-05-09T15:04:30;1.7;;;1;;
56271;SDS011;42177;48.914;18.160;2023-05-09T15:09:30;1.1;;;1;;
56271;SDS011;42177;48.914;18.160;2023-05-09T15:14:30;1.1;;;1;;
56271;SDS011;42177;48.914;18.160;2023-05-09T15:19:30;1;;;0.9;;
56271;SDS011;42177;48.914;18.160;2023-05-09T15:24:30;1;;;0.9;;
56271;SDS011;42177;48.914;18.160;2023-05-09T15:29:30;1.8;;;1.3;;
56271;SDS011;42177;48.914;18.160;2023-05-09T15:34:30;1.8;;;1.3;;
56271;SDS011;42177;48.914;18.160;2023-05-09T15:39:31;3.1;;;1.4;;
56271;SDS011;42177;48.914;18.160;2023-05-09T15:44:30;3.1;;;1.4;;
56271;SDS011;42177;48.914;18.160;2023-05-09T15:49:30;1.8;;;1;;
56271;SDS011;42177;48.914;18.160;2023-05-09T15:54:31;1.8;;;1;;
56271;SDS011;42177;48.914;18.160;2023-05-09T15:59:30;1.9;;;1.6;;
56271;SDS011;42177;48.914;18.160;2023-05-09T16:04:30;1.9;;;1.6;;
56271;SDS011;42177;48.914;18.160;2023-05-09T16:09:30;1.4;;;0.9;;
56271;SDS011;42177;48.914;18.160;2023-05-09T16:14:30;1.4;;;0.9;;
56271;SDS011;42177;48.914;18.160;2023-05-09T16:19:30;1.9;;;0.9;;
56271;SDS011;42177;48.914;18.160;2023-05-09T16:24:30;1.9;;;0.9;;
56271;SDS011;42177;48.914;18.160;2023-05-09T16:29:30;1.9;;;1.3;;
56271;SDS011;42177;48.914;18.160;2023-05-09T16:34:30;1.9;;;1.3;;
56271;SDS011;42177;48.914;18.160;2023-05-09T16:39:30;1.4;;;1.3;;
56271;SDS011;42177;48.914;18.160;2023-05-09T16:44:30;1.4;;;1.3;;
56271;SDS011;42177;48.914;18.160;2023-05-09T16:49:30;1.5;;;1.2;;
56271;SDS011;42177;48.914;18.160;2023-05-09T16:54:30;1.5;;;1.2;;
56271;SDS011;42177;48.914;18.160;2023-05-09T16:59:30;3;;;0.9;;
56271;SDS011;42177;48.914;18.160;2023-05-09T17:04:30;3;;;0.9;;
56271;SDS011;42177;48.914;18.160;2023-05-09T17:09:30;2.5;;;1.4;;
56271;SDS011;42177;48.914;18.160;2023-05-09T17:14:30;2.5;;;1.4;;
56271;SDS011;42177;48.914;18.160;2023-05-09T17:19:30;1.3;;;1.2;;
56271;SDS011;42177;48.914;18.160;2023-05-09T17:24:30;1.3;;;1.2;;
56271;SDS011;42177;48.914;18.160;2023-05-09T17:29:30;1.3;;;1.2;;
56271;SDS011;42177;48.914;18.160;2023-05-09T17:34:30;1.3;;;1.2;;
56271;SDS011;42177;48.914;18.160;2023-05-09T17:39:30;2.1;;;1.2;;
56271;SDS011;42177;48.914;18.160;2023-05-09T17:44:30;2.1;;;1.2;;
56271;SDS011;42177;48.914;18.160;2023-05-09T17:49:30;1.7;;;1.4;;
56271;SDS011;42177;48.914;18.160;2023-05-09T17:54:30;1.7;;;1.4;;
56271;SDS011;42177;48.914;18.160;2023-05-09T17:59:30;1.7;;;1.6;;
56271;SDS011;42177;48.914;18.160;2023-05-09T18:04:30;1.7;;;1.6;;
56271;SDS011;42177;48.914;18.160;2023-05-09T18:09:30;2.1;;;1.8;;
56271;SDS011;42177;48.914;18.160;2023-05-09T18:14:30;2.1;;;1.8;;
56271;SDS011;42177;48.914;18.160;2023-05-09T18:19:30;4;;;2.1;;
56271;SDS011;42177;48.914;18.160;2023-05-09T18:24:30;4;;;2.1;;
56271;SDS011;42177;48.914;18.160;2023-05-09T18:29:30;4;;;2.1;;
56271;SDS011;42177;48.914;18.160;2023-05-09T18:34:30;4;;;2.1;;
56271;SDS011;42177;48.914;18.160;2023-05-09T18:39:30;2.4;;;2.2;;
56271;SDS011;42177;48.914;18.160;2023-05-09T18:44:30;2.4;;;2.2;;
56271;SDS011;42177;48.914;18.160;2023-05-09T18:49:30;2.9;;;2.4;;
56271;SDS011;42177;48.914;18.160;2023-05-09T18:54:30;2.9;;;2.4;;
56271;SDS011;42177;48.914;18.160;2023-05-09T18:59:30;3.3;;;2.5;;
56271;SDS011;42177;48.914;18.160;2023-05-09T19:04:30;3.3;;;2.5;;
56271;SDS011;42177;48.914;18.160;2023-05-09T19:09:30;4.7;;;3.2;;
56271;SDS011;42177;48.914;18.160;2023-05-09T19:14:30;4.7;;;3.2;;
56271;SDS011;42177;48.914;18.160;2023-05-09T19:19:30;3.8;;;3.3;;
56271;SDS011;42177;48.914;18.160;2023-05-09T19:24:30;3.8;;;3.3;;
56271;SDS011;42177;48.914;18.160;2023-05-09T19:29:30;4;;;3.3;;
56271;SDS011;42177;48.914;18.160;2023-05-09T19:34:30;4;;;3.3;;
56271;SDS011;42177;48.914;18.160;2023-05-09T19:39:30;7.9;;;3.9;;
56271;SDS011;42177;48.914;18.160;2023-05-09T19:44:30;7.9;;;3.9;;
56271;SDS011;42177;48.914;18.160;2023-05-09T19:49:30;5.2;;;4;;
56271;SDS011;42177;48.914;18.160;2023-05-09T19:54:30;5.2;;;4;;
56271;SDS011;42177;48.914;18.160;2023-05-09T19:59:30;6.4;;;3.8;;
56271;SDS011;42177;48.914;18.160;2023-05-09T20:04:32;6.4;;;3.8;;
56271;SDS011;42177;48.914;18.160;2023-05-09T20:09:30;5.4;;;4;;
56271;SDS011;42177;48.914;18.160;2023-05-09T20:14:30;5.4;;;4;;
56271;SDS011;42177;48.914;18.160;2023-05-09T20:19:30;5.1;;;3.8;;
56271;SDS011;42177;48.914;18.160;2023-05-09T20:24:30;5.1;;;3.8;;
56271;SDS011;42177;48.914;18.160;2023-05-09T20:29:30;5.2;;;3.8;;
56271;SDS011;42177;48.914;18.160;2023-05-09T20:34:30;5.2;;;3.8;;
56271;SDS011;42177;48.914;18.160;2023-05-09T20:39:30;4.3;;;3.2;;
56271;SDS011;42177;48.914;18.160;2023-05-09T20:44:30;4.3;;;3.2;;
56271;SDS011;42177;48.914;18.160;2023-05-09T20:49:30;3.3;;;2.5;;
56271;SDS011;42177;48.914;18.160;2023-05-09T20:54:30;3.3;;;2.5;;
56271;SDS011;42177;48.914;18.160;2023-05-09T20:59:30;5.2;;;2.4;;
56271;SDS011;42177;48.914;18.160;2023-05-09T21:04:30;5.2;;;2.4;;
56271;SDS011;42177;48.914;18.160;2023-05-09T21:09:30;4.2;;;2.6;;
56271;SDS011;42177;48.914;18.160;2023-05-09T21:14:30;4.2;;;2.6;;
56271;SDS011;42177;48.914;18.160;2023-05-09T21:19:30;3.2;;;2.7;;
56271;SDS011;42177;48.914;18.160;2023-05-09T21:24:30;3.2;;;2.7;;
56271;SDS011;42177;48.914;18.160;2023-05-09T21:29:30;3.3;;;2.8;;
56271;SDS011;42177;48.914;18.160;2023-05-09T21:34:30;3.3;;;2.8;;
56271;SDS011;42177;48.914;18.160;2023-05-09T21:39:30;4;;;2.9;;
56271;SDS011;42177;48.914;18.160;2023-05-09T21:44:30;4;;;2.9;;
56271;SDS011;42177;48.914;18.160;2023-05-09T21:49:31;4.2;;;3.2;;
56271;SDS011;42177;48.914;18.160;2023-05-09T21:54:31;4.2;;;3.2;;
56271;SDS011;42177;48.914;18.160;2023-05-09T21:59:30;4.6;;;2.9;;
56271;SDS011;42177;48.914;18.160;2023-05-09T22:04:30;4.6;;;2.9;;
56271;SDS011;42177;48.914;18.160;2023-05-09T22:09:30;5.4;;;3.4;;
56271;SDS011;42177;48.914;18.160;2023-05-09T22:14:30;5.4;;;3.4;;
56271;SDS011;42177;48.914;18.160;2023-05-09T22:19:30;5.2;;;3.3;;
56271;SDS011;42177;48.914;18.160;2023-05-09T22:24:30;5.2;;;3.3;;
56271;SDS011;42177;48.914;18.160;2023-05-09T22:29:30;3.5;;;3.2;;
56271;SDS011;42177;48.914;18.160;2023-05-09T22:34:30;3.5;;;3.2;;
56271;SDS011;42177;48.914;18.160;2023-05-09T22:39:30;5.5;;;3.4;;
56271;SDS011;42177;48.914;18.160;2023-05-09T22:44:30;5.5;;;3.4;;
56271;SDS011;42177;48.914;18.160;2023-05-09T22:49:30;3.8;;;3.2;;
56271;SDS011;42177;48.914;18.160;2023-05-09T22:54:30;3.8;;;3.2;;
56271;SDS011;42177;48.914;18.160;2023-05-09T22:59:30;4;;;3.5;;
56271;SDS011;42177;48.914;18.160;2023-05-09T23:04:30;4;;;3.5;;
56271;SDS011;42177;48.914;18.160;2023-05-09T23:09:30;4.9;;;3.1;;
56271;SDS011;42177;48.914;18.160;2023-05-09T23:14:30;4.9;;;3.1;;
56271;SDS011;42177;48.914;18.160;2023-05-09T23:19:30;4.8;;;3.4;;
56271;SDS011;42177;48.914;18.160;2023-05-09T23:24:30;4.8;;;3.4;;
56271;SDS011;42177;48.914;18.160;2023-05-09T23:29:30;4.7;;;3.1;;
56271;SDS011;42177;48.914;18.160;2023-05-09T23:34:30;4.7;;;3.1;;
56271;SDS011;42177;48.914;18.160;2023-05-09T23:39:30;3.9;;;3.4;;
56271;SDS011;42177;48.914;18.160;2023-05-09T23:44:30;3.9;;;3.4;;
56271;SDS011;42177;48.914;18.160;2023-05-09T23:49:30;3.3;;;3;;
56271;SDS011;42177;48.914;18.160;2023-05-09T23:54:30;3.3;;;3;;
56271;SDS011;42177;48.914;18.160;2023-05-09T23:59:30;5.2;;;3.3;;
